createdAt,value
2018-08-20T00:00:45.327Z,67.50
2018-08-20T00:03:13.567Z,68.00
2018-08-20T00:05:45.419Z,68.30
2018-08-20T00:08:13.724Z,68.70
2018-08-20T00:10:42.001Z,69.00
2018-08-20T00:13:10.263Z,69.10
2018-08-20T00:15:38.489Z,69.50
2018-08-20T00:18:06.743Z,69.60
2018-08-20T00:20:34.945Z,70.10
2018-08-20T00:23:03.139Z,70.30
2018-08-20T00:25:31.335Z,70.70
2018-08-20T00:27:59.651Z,71.00
2018-08-20T00:30:27.865Z,71.20
2018-08-20T00:32:56.054Z,71.40
2018-08-20T00:35:24.298Z,71.60
2018-08-20T00:37:53.265Z,71.80
2018-08-20T00:40:21.993Z,72.10
2018-08-20T00:42:50.252Z,72.50
2018-08-20T00:45:18.507Z,72.60
2018-08-20T00:47:46.703Z,72.90
2018-08-20T00:50:14.927Z,73.20
2018-08-20T00:52:43.588Z,73.40
2018-08-20T00:55:12.677Z,73.80
2018-08-20T00:57:41.255Z,73.80
2018-08-20T01:00:10.328Z,74.00
2018-08-20T01:02:38.527Z,74.30
2018-08-20T01:05:06.744Z,74.60
2018-08-20T01:07:35.219Z,74.80
2018-08-20T01:10:03.543Z,75.20
2018-08-20T01:12:31.773Z,75.40
2018-08-20T01:14:59.963Z,75.80
2018-08-20T01:17:28.155Z,75.90
2018-08-20T01:19:56.358Z,75.90
2018-08-20T01:22:24.555Z,76.30
2018-08-20T01:24:52.794Z,76.70
2018-08-20T01:27:27.680Z,77.00
2018-08-20T01:29:56.084Z,78.10
2018-08-20T01:32:24.350Z,77.80
2018-08-20T01:34:52.557Z,78.40
2018-08-20T01:37:21.520Z,79.30
2018-08-20T01:39:50.291Z,79.70
2018-08-20T01:42:18.783Z,79.90
2018-08-20T01:44:47.515Z,80.20
2018-08-20T01:47:15.721Z,80.50
2018-08-20T01:49:43.977Z,80.90
2018-08-20T01:52:12.189Z,81.10
2018-08-20T01:54:40.389Z,81.50
2018-08-20T01:57:08.573Z,81.80
2018-08-20T01:59:37.669Z,82.10
2018-08-20T02:02:05.977Z,82.20
2018-08-20T02:04:34.231Z,82.70
2018-08-20T02:07:02.503Z,83.10
2018-08-20T02:09:30.703Z,83.40
2018-08-20T02:11:58.935Z,83.60
2018-08-20T02:14:27.405Z,83.70
2018-08-20T02:16:55.772Z,84.00
2018-08-20T02:19:24.041Z,84.10
2018-08-20T02:21:52.237Z,84.40
2018-08-20T02:24:20.439Z,84.80
2018-08-20T02:26:48.625Z,85.00
2018-08-20T02:29:16.883Z,85.20
2018-08-20T02:31:45.194Z,85.40
2018-08-20T02:34:13.417Z,85.50
2018-08-20T02:36:41.683Z,85.60
2018-08-20T02:39:12.350Z,85.60
2018-08-20T02:41:41.028Z,85.90
2018-08-20T02:44:10.024Z,85.90
2018-08-20T02:46:45.212Z,85.80
2018-08-20T02:49:14.287Z,85.90
2018-08-20T02:51:42.484Z,86.00
2018-08-20T02:54:11.546Z,86.00
2018-08-20T02:56:40.109Z,86.40
2018-08-20T02:59:08.330Z,86.50
2018-08-20T03:01:36.725Z,86.90
2018-08-20T03:04:05.180Z,87.20
2018-08-20T03:06:33.440Z,87.40
2018-08-20T03:09:01.621Z,87.60
2018-08-20T03:11:30.016Z,87.80
2018-08-20T03:13:58.220Z,88.00
2018-08-20T03:16:26.450Z,88.10
2018-08-20T03:18:54.694Z,88.10
2018-08-20T03:21:22.928Z,88.20
2018-08-20T03:23:51.129Z,88.20
2018-08-20T03:26:19.350Z,88.20
2018-08-20T03:28:47.594Z,88.20
2018-08-20T03:31:15.852Z,88.10
2018-08-20T03:33:44.062Z,88.30
2018-08-20T03:36:12.262Z,88.30
2018-08-20T03:38:40.540Z,88.60
2018-08-20T03:41:08.767Z,88.60
2018-08-20T03:43:36.971Z,88.90
2018-08-20T03:46:05.376Z,88.90
2018-08-20T03:48:33.620Z,89.10
2018-08-20T03:51:02.004Z,89.20
2018-08-20T03:53:30.204Z,89.20
2018-08-20T03:55:58.416Z,89.20
2018-08-20T03:58:26.676Z,89.40
2018-08-20T04:00:54.928Z,89.60
2018-08-20T04:03:23.118Z,90.00
2018-08-20T04:05:51.380Z,90.50
2018-08-20T04:08:19.798Z,90.20
2018-08-20T04:10:48.060Z,90.30
2018-08-20T04:13:16.318Z,90.40
2018-08-20T04:15:44.528Z,90.50
2018-08-20T04:18:12.746Z,90.60
2018-08-20T04:20:40.946Z,90.70
2018-08-20T04:23:09.178Z,90.80
2018-08-20T04:25:37.377Z,90.90
2018-08-20T04:28:05.644Z,91.00
2018-08-20T04:30:33.933Z,91.10
2018-08-20T04:33:02.118Z,91.10
2018-08-20T04:35:30.325Z,91.20
2018-08-20T04:37:58.658Z,91.20
2018-08-20T04:40:26.879Z,91.20
2018-08-20T04:42:55.062Z,91.20
2018-08-20T04:45:23.298Z,91.20
2018-08-20T04:47:51.556Z,91.30
2018-08-20T04:50:20.004Z,91.40
2018-08-20T04:52:47.977Z,91.40
2018-08-20T04:55:16.176Z,91.40
2018-08-20T04:57:44.382Z,91.50
2018-08-20T05:00:12.602Z,91.50
2018-08-20T05:02:40.901Z,91.50
2018-08-20T05:05:09.148Z,91.50
2018-08-20T05:07:37.350Z,91.50
2018-08-20T05:10:05.802Z,91.50
2018-08-20T05:12:33.982Z,91.40
2018-08-20T05:15:02.188Z,91.50
2018-08-20T05:17:30.378Z,91.40
2018-08-20T05:19:58.586Z,91.30
2018-08-20T05:22:26.796Z,91.20
2018-08-20T05:24:54.976Z,91.20
2018-08-20T05:27:23.171Z,91.30
2018-08-20T05:29:51.406Z,91.10
2018-08-20T05:32:19.720Z,91.10
2018-08-20T05:34:48.058Z,91.00
2018-08-20T05:37:16.272Z,90.90
2018-08-20T05:39:44.462Z,91.20
2018-08-20T05:42:12.697Z,90.80
2018-08-20T05:44:40.915Z,90.70
2018-08-20T05:47:09.124Z,90.70
2018-08-20T05:49:37.352Z,90.60
2018-08-20T05:52:05.779Z,90.60
2018-08-20T05:54:33.962Z,90.50
2018-08-20T05:57:02.154Z,90.50
2018-08-20T05:59:30.366Z,90.50
2018-08-20T06:01:58.588Z,90.40
2018-08-20T06:04:26.814Z,90.40
2018-08-20T06:06:55.038Z,90.30
2018-08-20T06:09:23.242Z,90.40
2018-08-20T06:11:51.467Z,90.30
2018-08-20T06:14:19.773Z,90.20
2018-08-20T06:16:47.982Z,90.20
2018-08-20T06:19:16.182Z,90.10
2018-08-20T06:21:44.403Z,90.00
2018-08-20T06:24:12.786Z,90.00
2018-08-20T06:26:40.993Z,89.90
2018-08-20T06:29:09.217Z,89.90
2018-08-20T06:31:37.452Z,89.70
2018-08-20T06:34:05.771Z,89.50
2018-08-20T06:36:33.973Z,89.60
2018-08-20T06:39:02.174Z,89.50
2018-08-20T06:41:30.474Z,89.50
2018-08-20T06:43:58.665Z,89.30
2018-08-20T06:46:26.891Z,89.10
2018-08-20T06:48:55.155Z,89.10
2018-08-20T06:51:23.355Z,89.10
2018-08-20T06:53:51.576Z,88.80
2018-08-20T06:56:19.804Z,88.70
2018-08-20T06:58:48.020Z,87.90
2018-08-20T07:01:16.215Z,87.50
2018-08-20T07:03:44.425Z,87.00
2018-08-20T07:06:12.635Z,86.70
2018-08-20T07:08:40.852Z,86.40
2018-08-20T07:11:09.073Z,86.30
2018-08-20T07:13:37.866Z,86.40
2018-08-20T07:16:07.353Z,85.90
2018-08-20T07:18:35.577Z,85.20
2018-08-20T07:21:03.779Z,84.90
2018-08-20T07:23:32.109Z,84.50
2018-08-20T07:26:00.223Z,83.80
2018-08-20T07:28:28.430Z,83.50
2018-08-20T07:30:56.641Z,83.00
2018-08-20T07:33:24.817Z,82.90
2018-08-20T07:35:53.023Z,82.20
2018-08-20T07:38:21.275Z,81.90
2018-08-20T07:40:50.312Z,82.20
2018-08-20T07:43:18.536Z,82.20
2018-08-20T07:45:46.790Z,82.10
2018-08-20T07:48:14.987Z,82.10
2018-08-20T07:50:43.213Z,82.50
2018-08-20T07:53:11.459Z,82.90
2018-08-20T07:55:39.736Z,83.10
2018-08-20T07:58:08.153Z,83.30
2018-08-20T08:00:36.603Z,83.50
2018-08-20T08:03:04.845Z,83.70
2018-08-20T08:05:33.055Z,83.40
2018-08-20T08:08:01.345Z,83.10
2018-08-20T08:10:29.559Z,82.90
2018-08-20T08:12:57.771Z,82.30
2018-08-20T08:15:26.064Z,82.70
2018-08-20T08:17:54.294Z,82.50
2018-08-20T08:20:22.505Z,82.70
2018-08-20T08:22:50.704Z,82.90
2018-08-20T08:25:18.936Z,82.80
2018-08-20T08:27:47.143Z,83.10
2018-08-20T08:30:17.529Z,83.60
2018-08-20T08:32:46.094Z,83.60
2018-08-20T08:35:14.563Z,83.50
2018-08-20T08:37:42.858Z,83.40
2018-08-20T08:40:12.515Z,82.80
2018-08-20T08:42:40.747Z,83.50
2018-08-20T08:45:11.531Z,82.50
2018-08-20T08:47:39.787Z,82.00
2018-08-20T08:50:08.009Z,82.00
2018-08-20T08:52:36.383Z,82.00
2018-08-20T08:55:05.075Z,82.00
2018-08-20T08:57:33.299Z,81.50
2018-08-20T09:00:01.497Z,81.30
2018-08-20T09:02:29.705Z,80.60
2018-08-20T09:04:57.925Z,79.70
2018-08-20T09:07:26.144Z,78.90
2018-08-20T09:09:54.358Z,77.80
2018-08-20T09:12:22.594Z,76.20
2018-08-20T09:14:50.800Z,72.90
2018-08-20T09:17:18.997Z,68.20
2018-08-20T09:19:47.208Z,65.30
2018-08-20T09:22:15.420Z,62.40
2018-08-20T09:24:43.618Z,61.10
2018-08-20T09:27:11.840Z,58.40
2018-08-20T09:29:40.038Z,56.70
2018-08-20T09:32:08.242Z,55.00
2018-08-20T09:34:36.474Z,54.00
2018-08-20T09:37:05.100Z,53.10
2018-08-20T09:39:33.315Z,51.30
2018-08-20T09:42:01.542Z,49.50
2018-08-20T09:44:29.976Z,47.30
2018-08-20T09:46:58.149Z,47.40
2018-08-20T09:49:26.357Z,47.80
2018-08-20T09:51:54.553Z,48.00
2018-08-20T09:54:22.762Z,47.40
2018-08-20T09:56:50.976Z,46.90
2018-08-20T09:59:19.163Z,46.10
2018-08-20T10:01:47.388Z,44.80
2018-08-20T10:04:15.588Z,43.60
2018-08-20T10:06:43.802Z,43.10
2018-08-20T10:09:12.010Z,43.20
2018-08-20T10:11:40.192Z,44.30
2018-08-20T10:14:08.433Z,45.00
2018-08-20T10:16:36.655Z,45.90
2018-08-20T10:19:04.875Z,47.00
2018-08-20T10:21:33.073Z,47.90
2018-08-20T10:24:01.275Z,47.90
2018-08-20T10:26:29.478Z,46.50
2018-08-20T10:28:57.855Z,44.60
2018-08-20T10:31:26.046Z,43.10
2018-08-20T10:33:54.252Z,41.60
2018-08-20T10:36:22.451Z,40.50
2018-08-20T10:38:50.676Z,40.00
2018-08-20T10:41:18.877Z,39.70
2018-08-20T10:43:47.092Z,40.30
2018-08-20T10:46:19.371Z,40.70
2018-08-20T10:48:47.736Z,40.10
2018-08-20T10:51:15.993Z,40.60
2018-08-20T10:53:44.140Z,41.80
2018-08-20T10:56:12.391Z,42.00
2018-08-20T10:58:40.585Z,43.30
2018-08-20T11:01:09.355Z,44.30
2018-08-20T11:03:38.657Z,45.00
2018-08-20T11:06:06.871Z,44.70
2018-08-20T11:08:35.073Z,46.10
2018-08-20T11:11:03.287Z,45.90
2018-08-20T11:13:31.467Z,46.60
2018-08-20T11:15:59.663Z,47.10
2018-08-20T11:18:28.046Z,48.20
2018-08-20T11:20:56.063Z,48.70
2018-08-20T11:23:24.289Z,49.10
2018-08-20T11:25:52.501Z,49.70
2018-08-20T11:28:20.781Z,49.60
2018-08-20T11:30:48.977Z,49.70
2018-08-20T11:33:17.209Z,49.10
2018-08-20T11:35:45.402Z,48.40
2018-08-20T11:38:13.597Z,48.30
2018-08-20T11:40:41.816Z,48.00
2018-08-20T11:43:10.006Z,48.30
2018-08-20T11:45:38.202Z,47.10
2018-08-20T11:48:06.447Z,46.80
2018-08-20T11:50:34.656Z,47.50
2018-08-20T11:53:02.845Z,48.10
2018-08-20T11:55:31.067Z,47.60
2018-08-20T11:57:59.559Z,47.20
2018-08-20T12:00:27.755Z,46.90
2018-08-20T12:02:55.949Z,44.90
2018-08-20T12:05:24.153Z,43.70
2018-08-20T12:07:52.425Z,42.80
2018-08-20T12:10:20.638Z,42.30
2018-08-20T12:12:48.846Z,42.50
2018-08-20T12:15:17.091Z,42.80
2018-08-20T12:17:45.329Z,43.20
2018-08-20T12:20:13.544Z,41.70
2018-08-20T12:22:41.759Z,41.80
2018-08-20T12:25:12.037Z,42.20
2018-08-20T12:27:40.236Z,41.50
2018-08-20T12:30:09.419Z,40.10
2018-08-20T12:32:37.647Z,37.40
2018-08-20T12:35:06.117Z,36.70
2018-08-20T12:37:34.307Z,35.00
2018-08-20T12:40:02.666Z,33.90
2018-08-20T12:42:30.745Z,34.00
2018-08-20T12:44:58.963Z,35.60
2018-08-20T12:47:27.153Z,37.10
2018-08-20T12:49:55.359Z,38.50
2018-08-20T12:52:23.666Z,39.20
2018-08-20T12:54:51.893Z,40.00
2018-08-20T12:57:20.156Z,40.30
2018-08-20T12:59:52.887Z,40.90
2018-08-20T13:02:21.077Z,41.70
2018-08-20T13:04:49.319Z,42.50
2018-08-20T13:07:17.571Z,43.00
2018-08-20T13:09:45.794Z,43.80
2018-08-20T13:12:14.407Z,44.40
2018-08-20T13:14:42.608Z,43.80
2018-08-20T13:17:10.834Z,44.80
2018-08-20T13:19:39.351Z,45.20
2018-08-20T13:22:07.587Z,45.70
2018-08-20T13:24:35.796Z,45.90
2018-08-20T13:27:04.012Z,46.00
2018-08-20T13:29:32.215Z,46.30
2018-08-20T13:32:00.435Z,46.70
2018-08-20T13:34:28.750Z,46.70
2018-08-20T13:36:56.944Z,46.70
2018-08-20T13:39:25.191Z,46.70
2018-08-20T13:41:53.564Z,46.60
2018-08-20T13:44:21.880Z,46.80
2018-08-20T13:46:50.083Z,46.80
2018-08-20T13:49:18.368Z,47.10
2018-08-20T13:51:46.586Z,47.90
2018-08-20T13:54:14.785Z,47.50
2018-08-20T13:56:42.996Z,47.50
2018-08-20T13:59:11.234Z,47.30
2018-08-20T14:01:39.447Z,47.20
2018-08-20T14:04:07.665Z,46.80
2018-08-20T14:06:35.892Z,46.40
2018-08-20T14:09:05.758Z,45.00
2018-08-20T14:11:33.966Z,44.40
2018-08-20T14:14:02.151Z,44.80
2018-08-20T14:16:30.381Z,44.80
2018-08-20T14:18:58.718Z,44.50
2018-08-20T14:21:26.932Z,44.40
2018-08-20T14:23:55.130Z,44.30
2018-08-20T14:26:23.317Z,44.60
2018-08-20T14:28:51.554Z,44.80
2018-08-20T14:31:19.808Z,44.80
2018-08-20T14:33:48.079Z,44.80
2018-08-20T14:36:16.282Z,44.80
2018-08-20T14:38:44.498Z,44.80
2018-08-20T14:41:12.711Z,45.20
2018-08-20T14:43:40.940Z,44.60
2018-08-20T14:46:26.580Z,44.20
2018-08-20T14:48:54.785Z,44.20
2018-08-20T14:51:22.970Z,43.60
2018-08-20T14:53:51.190Z,43.10
2018-08-20T14:56:19.454Z,43.60
2018-08-20T14:58:47.656Z,43.40
2018-08-20T15:01:15.870Z,43.50
2018-08-20T15:03:44.100Z,43.70
2018-08-20T15:06:12.320Z,43.80
2018-08-20T15:08:40.600Z,44.10
2018-08-20T15:11:09.012Z,44.70
2018-08-20T15:13:37.296Z,45.40
2018-08-20T15:16:05.591Z,46.00
2018-08-20T15:18:33.995Z,46.00
2018-08-20T15:21:02.190Z,45.80
2018-08-20T15:23:30.436Z,46.10
2018-08-20T15:25:58.678Z,45.70
2018-08-20T15:28:26.887Z,45.80
2018-08-20T15:30:55.126Z,45.80
2018-08-20T15:33:23.339Z,45.90
2018-08-20T15:35:51.846Z,46.30
2018-08-20T15:38:20.052Z,46.30
2018-08-20T15:40:48.509Z,46.70
2018-08-20T15:43:16.720Z,46.80
2018-08-20T15:45:44.968Z,46.00
2018-08-20T15:48:13.254Z,45.80
2018-08-20T15:50:41.517Z,45.60
2018-08-20T15:53:09.761Z,45.60
2018-08-20T15:55:37.943Z,45.50
2018-08-20T15:58:06.265Z,45.50
2018-08-20T16:00:34.483Z,45.90
2018-08-20T16:03:02.727Z,46.40
2018-08-20T16:05:30.914Z,46.50
2018-08-20T16:07:59.288Z,46.50
2018-08-20T16:10:27.585Z,46.60
2018-08-20T16:12:55.847Z,46.60
2018-08-20T16:15:24.015Z,46.30
2018-08-20T16:17:52.289Z,46.10
2018-08-20T16:20:20.534Z,46.20
2018-08-20T16:22:48.727Z,47.30
2018-08-20T16:25:16.955Z,47.30
2018-08-20T16:27:45.148Z,47.40
2018-08-20T16:30:14.154Z,47.70
2018-08-20T16:32:42.356Z,47.90
2018-08-20T16:35:11.974Z,47.90
2018-08-20T16:37:40.787Z,48.10
2018-08-20T16:40:09.026Z,47.70
2018-08-20T16:42:37.234Z,48.50
2018-08-20T16:45:06.908Z,48.60
2018-08-20T16:47:35.354Z,48.70
2018-08-20T16:50:03.622Z,48.50
2018-08-20T16:52:31.820Z,48.70
2018-08-20T16:55:00.045Z,48.90
2018-08-20T16:57:28.258Z,49.10
2018-08-20T16:59:56.549Z,49.40
2018-08-20T17:02:28.110Z,49.50
2018-08-20T17:04:56.376Z,49.50
2018-08-20T17:07:24.562Z,50.00
2018-08-20T17:09:53.081Z,50.50
2018-08-20T17:12:21.299Z,51.60
2018-08-20T17:14:49.622Z,52.10
2018-08-20T17:17:17.800Z,52.50
2018-08-20T17:19:46.697Z,53.20
2018-08-20T17:22:15.051Z,53.70
2018-08-20T17:24:43.255Z,54.20
2018-08-20T17:27:11.929Z,54.50
2018-08-20T17:29:40.171Z,55.00
2018-08-20T17:32:09.219Z,55.40
2018-08-20T17:34:39.441Z,55.90
2018-08-20T17:37:07.632Z,56.20
2018-08-20T17:39:50.103Z,56.50
2018-08-20T17:42:18.395Z,56.70
2018-08-20T17:44:46.693Z,57.00
2018-08-20T17:47:19.161Z,57.20
2018-08-20T17:49:47.456Z,57.50
2018-08-20T17:52:15.641Z,57.70
2018-08-20T17:54:43.875Z,58.10
2018-08-20T17:57:12.104Z,58.30
2018-08-20T17:59:40.403Z,58.70
2018-08-20T18:02:12.900Z,58.90
2018-08-20T18:04:41.126Z,59.10
2018-08-20T18:07:09.353Z,59.40
2018-08-20T18:09:37.556Z,59.60
2018-08-20T18:12:05.773Z,59.90
2018-08-20T18:14:33.967Z,60.10
2018-08-20T18:17:02.193Z,60.40
2018-08-20T18:19:30.424Z,60.80
2018-08-20T18:21:58.695Z,61.10
2018-08-20T18:24:26.918Z,61.50
2018-08-20T18:26:56.496Z,62.00
2018-08-20T18:29:24.738Z,62.50
2018-08-20T18:31:53.762Z,63.10
2018-08-20T18:34:21.967Z,63.50
2018-08-20T18:36:50.472Z,63.90
2018-08-20T18:39:18.723Z,64.30
2018-08-20T18:41:50.284Z,64.80
2018-08-20T18:44:18.727Z,65.10
2018-08-20T18:46:46.962Z,65.40
2018-08-20T18:49:15.189Z,65.70
2018-08-20T18:51:43.727Z,66.30
2018-08-20T18:54:12.040Z,66.80
2018-08-20T18:56:40.138Z,67.10
2018-08-20T18:59:08.635Z,67.40
2018-08-20T19:01:37.882Z,67.70
2018-08-20T19:04:06.110Z,68.10
2018-08-20T19:06:34.351Z,68.50
2018-08-20T19:09:02.731Z,68.90
2018-08-20T19:11:30.937Z,69.50
2018-08-20T19:14:04.457Z,70.00
2018-08-20T19:16:36.882Z,70.50
2018-08-20T19:19:06.300Z,70.90
2018-08-20T19:21:38.845Z,71.30
2018-08-20T19:24:07.900Z,71.80
2018-08-20T19:26:36.427Z,72.40
2018-08-20T19:29:22.854Z,72.70
2018-08-20T19:31:51.058Z,73.40
2018-08-20T19:34:19.255Z,74.00
2018-08-20T19:36:47.470Z,74.50
2018-08-20T19:39:15.702Z,75.30
2018-08-20T19:41:43.938Z,76.00
2018-08-20T19:44:12.169Z,76.60
2018-08-20T19:46:40.380Z,77.30
2018-08-20T19:49:12.458Z,78.80
2018-08-20T19:51:42.077Z,78.30
2018-08-20T19:54:12.499Z,78.60
2018-08-20T19:56:40.746Z,79.10
2018-08-20T19:59:09.708Z,79.50
2018-08-20T20:01:37.988Z,79.70
2018-08-20T20:04:06.194Z,79.90
2018-08-20T20:06:34.428Z,81.00
2018-08-20T20:09:07.731Z,80.30
2018-08-20T20:11:41.143Z,80.30
2018-08-20T20:14:09.403Z,80.50
2018-08-20T20:16:43.084Z,80.40
2018-08-20T20:19:11.799Z,81.20
2018-08-20T20:21:40.014Z,80.50
2018-08-20T20:24:08.986Z,80.60
2018-08-20T20:26:37.168Z,80.70
2018-08-20T20:29:06.673Z,80.80
2018-08-20T20:31:34.912Z,80.80
2018-08-20T20:34:03.350Z,80.80
2018-08-20T20:36:32.266Z,80.60
2018-08-20T20:39:00.813Z,80.50
2018-08-20T20:41:29.070Z,80.30
2018-08-20T20:43:57.302Z,80.40
2018-08-20T20:46:26.120Z,80.30
2018-08-20T20:48:54.496Z,80.20
2018-08-20T20:51:22.676Z,80.10
2018-08-20T20:53:50.885Z,80.00
2018-08-20T20:56:19.104Z,80.20
2018-08-20T20:58:47.308Z,80.20
2018-08-20T21:01:15.665Z,80.50
2018-08-20T21:03:43.769Z,80.80
2018-08-20T21:06:11.980Z,81.10
2018-08-20T21:08:46.258Z,81.10
2018-08-20T21:11:15.369Z,81.60
2018-08-20T21:13:44.016Z,81.90
2018-08-20T21:16:13.704Z,82.00
2018-08-20T21:18:49.320Z,82.30
2018-08-20T21:21:18.294Z,82.50
2018-08-20T21:23:46.540Z,82.90
2018-08-20T21:26:14.940Z,82.90
2018-08-20T21:28:51.410Z,82.90
2018-08-20T21:31:20.830Z,82.90
2018-08-20T21:33:53.640Z,83.00
2018-08-20T21:36:21.828Z,82.90
2018-08-20T21:38:50.069Z,83.00
2018-08-20T21:41:23.182Z,83.00
2018-08-20T21:43:51.542Z,83.00
2018-08-20T21:46:19.751Z,82.90
2018-08-20T21:48:48.052Z,82.80
2018-08-20T21:51:21.635Z,82.60
2018-08-20T21:53:49.978Z,82.70
2018-08-20T21:56:18.186Z,82.80
2018-08-20T21:58:46.396Z,82.90
2018-08-20T22:01:15.885Z,82.80
2018-08-20T22:03:44.456Z,83.20
2018-08-20T22:06:13.168Z,83.40
2018-08-20T22:08:41.444Z,83.20
2018-08-20T22:11:10.762Z,83.30
2018-08-20T22:13:39.130Z,83.30
2018-08-20T22:16:15.998Z,83.30
2018-08-20T22:18:45.439Z,83.40
2018-08-20T22:21:14.864Z,82.70
2018-08-20T22:23:44.078Z,83.60
2018-08-20T22:26:14.598Z,84.80
2018-08-20T22:28:43.142Z,84.50
2018-08-20T22:31:11.348Z,84.80
2018-08-20T22:33:39.708Z,86.00
2018-08-20T22:36:08.826Z,85.10
2018-08-20T22:38:42.530Z,85.70
2018-08-20T22:41:10.839Z,85.10
2018-08-20T22:43:39.054Z,85.10
2018-08-20T22:46:07.278Z,85.00
2018-08-20T22:48:35.478Z,85.10
2018-08-20T22:51:13.746Z,85.10
2018-08-20T22:53:45.084Z,85.10
2018-08-20T22:56:21.470Z,85.00
2018-08-20T22:58:49.698Z,85.00
2018-08-20T23:01:18.030Z,85.00
2018-08-20T23:03:46.240Z,85.10
2018-08-20T23:06:14.456Z,85.10
2018-08-20T23:08:42.746Z,85.20
2018-08-20T23:11:11.090Z,85.60
2018-08-20T23:13:39.300Z,85.70
2018-08-20T23:16:07.513Z,85.80
2018-08-20T23:18:35.794Z,85.90
2018-08-20T23:21:04.060Z,85.90
2018-08-20T23:23:34.714Z,85.90
2018-08-20T23:26:06.630Z,85.40
2018-08-20T23:28:36.440Z,86.50
2018-08-20T23:31:04.655Z,86.20
2018-08-20T23:33:33.670Z,86.30
2018-08-20T23:36:01.907Z,86.30
2018-08-20T23:38:30.107Z,86.30
2018-08-20T23:40:58.935Z,86.50
2018-08-20T23:43:27.419Z,86.60
2018-08-20T23:45:55.621Z,86.60
2018-08-20T23:48:24.029Z,86.70
2018-08-20T23:51:00.014Z,86.80
2018-08-20T23:53:28.870Z,86.90
2018-08-20T23:55:57.393Z,87.00
2018-08-20T23:58:25.591Z,87.00
